Latest Weather Observations for Dwellingup

IDW60801

Issued at 3:43 pm WST Thursday 18 August 2022 (issued every 10 minutes, with the page automatically refreshed every 10 minutes)

About weather observations | Map of weather stations | Latest weather observations for WA | Other Formats
Station Details ID: 009538 Name: DWELLINGUP Lat: -32.71 Lon: 116.06 Height: 267.0 m
Data from the previous 72 hours. | See also: Recent months at Dwellingup
Date/Time
WST
Temp
°C
App
Temp
°C
Dew
Point
°C
Rel
Hum
%
Delta-T
°C
Wind Press
QNH
hPa
Press
MSL
hPa
Rain since
9am
mm
Dir  Spd
km/h
Gust
km/h
Spd
kts
Gust
kts
18/03:30pm 13.5 11.5 7.3 66 3.0 WSW 7 13 4 7 1027.0 1027.3 0.0
18/03:00pm 13.6 10.9 7.4 66 3.1 WSW 11 22 6 12 1027.0 1027.3 0.0
18/02:30pm 13.4 10.2 6.7 64 3.3 WNW 13 24 7 13 1026.9 1027.2 0.0
18/02:00pm 13.9 10.4 7.2 64 3.3 WNW 15 26 8 14 1026.8 1027.1 0.0
18/01:30pm 14.6 11.3 6.4 58 4.0 NW 13 28 7 15 1026.9 1027.2 0.0
18/01:00pm 14.6 10.8 7.6 63 3.5 NW 17 30 9 16 1027.2 1027.5 0.0
18/12:30pm 14.0 11.1 8.0 67 3.0 WNW 13 28 7 15 1027.5 1027.7 0.0
18/12:00pm 12.4 9.6 7.1 70 2.6 NW 11 17 6 9 1027.7 1027.9 0.0
18/11:30am 12.1 9.5 7.8 75 2.1 WNW 11 17 6 9 1028.0 1028.2 0.0
18/11:00am 11.7 10.2 6.8 72 2.4 NNW 4 9 2 5 1028.1 1028.3 0.0
18/10:30am 11.1 9.0 6.5 73 2.2 NNE 7 9 4 5 1027.9 1028.1 0.0
18/10:00am 10.7 10.2 7.8 82 1.4 CALM 0 0 0 0 1027.8 1028.0 0.0
18/09:30am 9.5 8.1 9.0 97 0.2 N 6 9 3 5 1027.7 1027.9 0.0
18/09:00am 7.2 5.3 6.8 97 0.2 NNW 6 9 3 5 1027.8 1028.0 6.0
18/08:30am 4.3 1.2 3.7 96 0.3 NW 9 13 5 7 1027.5 1027.7 6.0
18/08:00am 1.9 0.1 1.2 95 0.3 CALM 0 0 0 0 1026.8 1027.1 6.0
18/07:30am 0.8 -1.2 -0.1 94 0.3 CALM 0 0 0 0 1026.2 1026.4 6.0
18/07:00am 0.6 -1.4 -0.3 94 0.3 CALM 0 0 0 0 1025.7 1025.9 6.0
18/06:30am 0.7 -1.3 -0.2 94 0.3 CALM 0 0 0 0 1025.3 1025.5 6.0
18/06:00am 0.9 -1.1 0.0 94 0.3 CALM 0 0 0 0 1025.1 1025.3 6.0
18/05:30am 1.1 -1.6 0.2 94 0.3 SW 4 6 2 3 1024.7 1024.9 6.0
18/05:00am 1.4 -1.8 0.5 94 0.3 SSW 7 9 4 5 1024.4 1024.6 6.0
18/04:30am 1.7 -1.9 0.8 94 0.3 SW 9 11 5 6 1024.4 1024.6 6.0
18/04:00am 1.9 -1.6 1.0 94 0.3 WSW 9 11 5 6 1024.0 1024.2 6.0
18/03:30am 2.4 -1.1 1.5 94 0.4 SW 9 11 5 6 1023.9 1024.1 6.0
18/03:00am 2.3 -1.6 1.4 94 0.3 SSW 11 13 6 7 1023.9 1024.1 5.8
18/02:30am 2.6 -1.2 1.6 93 0.4 SSW 11 13 6 7 1023.4 1023.6 5.8
18/02:00am 2.9 -1.2 2.0 94 0.4 SSW 13 15 7 8 1023.2 1023.4 5.8
18/01:30am 3.2 -0.5 2.2 93 0.4 SSW 11 13 6 7 1022.9 1023.1 5.8
18/01:00am 3.3 -0.4 2.3 93 0.4 S 11 11 6 6 1022.8 1023.0 5.8
18/12:30am 3.7 0.8 2.7 93 0.4 SSE 7 9 4 5 1022.2 1022.4 5.8
18/12:00am 3.7 0.1 2.7 93 0.4 SSE 11 13 6 7 1022.0 1022.2 5.8
 
Date/Time
WST
Temp
°C
App
Temp
°C
Dew
Point
°C
Rel
Hum
%
Delta-T
°C
Wind Press
QNH
hPa
Press
MSL
hPa
Rain since
9am
mm
Dir  Spd
km/h
Gust
km/h
Spd
kts
Gust
kts
17/11:30pm 4.0 0.0 3.0 93 0.4 SSE 13 15 7 8 1021.5 1021.7 5.8
17/11:00pm 4.3 0.4 3.3 93 0.4 SSE 13 17 7 9 1021.4 1021.6 5.8
17/10:30pm 4.7 0.8 3.5 92 0.5 S 13 15 7 8 1021.3 1021.5 5.8
17/10:00pm 5.1 1.3 3.9 92 0.5 SSE 13 19 7 10 1020.9 1021.1 5.8
17/09:30pm 5.5 1.8 4.3 92 0.5 S 13 19 7 10 1020.5 1020.7 5.8
17/09:00pm 6.0 2.3 4.6 91 0.6 S 13 17 7 9 1019.8 1019.9 5.8
17/08:30pm 6.6 3.0 5.2 91 0.6 SSW 13 17 7 9 1019.2 1019.4 5.8
17/08:00pm 7.3 6.0 5.9 91 0.6 SSE 2 9 1 5 1018.3 1018.5 5.8
17/07:30pm 7.5 6.6 6.1 91 0.6 CALM 0 0 0 0 1017.9 1018.1 5.8
17/07:00pm 7.8 7.0 6.3 90 0.7 CALM 0 0 0 0 1016.8 1016.9 5.8
17/06:30pm 8.0 5.8 6.3 89 0.8 E 7 13 4 7 1016.1 1016.2 5.8
17/06:00pm 8.2 4.9 6.5 89 0.8 SSW 13 22 7 12 1015.5 1015.7 5.8
17/05:30pm 8.4 5.8 6.0 85 1.1 S 9 13 5 7 1014.6 1014.8 5.6
17/05:00pm 9.0 6.1 6.6 85 1.1 SSW 11 15 6 8 1013.8 1013.9 5.6
17/04:30pm 9.2 6.8 6.8 85 1.1 SSE 9 11 5 6 1013.0 1013.1 5.6
17/04:00pm 9.2 6.4 6.8 85 1.1 SSE 11 19 6 10 1012.7 1012.8 5.4
17/03:30pm 8.9 6.0 6.5 85 1.1 S 11 17 6 9 1012.3 1012.4 5.4
17/03:00pm 8.8 6.3 6.4 85 1.1 SW 9 17 5 9 1012.2 1012.3 5.2
17/02:30pm 8.8 6.1 5.7 81 1.4 SW 9 15 5 8 1011.4 1011.6 4.8
17/02:00pm 10.2 8.4 8.0 86 1.1 W 7 13 4 7 1011.0 1011.2 4.2
17/01:30pm 9.9 8.0 7.5 85 1.2 N 7 11 4 6 1010.6 1010.7 3.4
17/01:00pm 9.2 7.2 7.0 86 1.0 NW 7 13 4 7 1011.0 1011.2 2.8
17/12:30pm 9.0 6.4 6.1 82 1.4 WSW 9 15 5 8 1011.4 1011.6 2.2
17/12:00pm 11.4 8.1 6.3 71 2.4 SW 13 22 7 12 1011.8 1011.9 1.8
17/11:30am 12.1 8.5 8.4 78 1.9 NW 17 28 9 15 1011.2 1011.4 1.6
17/11:00am 9.9 7.2 7.5 85 1.2 WNW 11 19 6 10 1011.6 1011.8 1.4
17/10:30am 9.1 6.1 6.2 82 1.4 NW 11 17 6 9 1011.4 1011.6 1.2
17/10:00am 9.6 4.7 5.2 74 2.0 WSW 20 46 11 25 1011.5 1011.7 1.0
17/09:55am 10.2 5.5 6.0 75 2.0 SW 20 46 11 25 1011.5 1011.7 1.0
17/09:30am 10.0 6.9 7.1 82 1.4 WSW 13 26 7 14 1010.9 1011.1 0.8
17/09:00am 10.5 8.2 8.9 90 0.8 W 11 19 6 10 1010.5 1010.6 45.8
17/08:30am 9.4 6.9 8.3 93 0.5 W 11 20 6 11 1010.5 1010.6 41.8
17/08:00am 8.2 4.6 6.8 91 0.7 W 15 26 8 14 1009.8 1009.9 36.8
17/07:30am 7.9 3.3 6.5 91 0.7 WNW 20 39 11 21 1009.4 1009.5 31.0
17/07:00am 7.9 4.6 6.4 90 0.7 W 13 26 7 14 1009.0 1009.1 26.6
17/06:30am 8.4 4.9 7.2 92 0.6 WNW 15 30 8 16 1008.3 1008.4 25.6
17/06:00am 8.2 5.1 7.1 93 0.5 WNW 13 22 7 12 1007.2 1007.3 24.6
17/05:30am 7.9 4.7 6.7 92 0.6 WNW 13 19 7 10 1007.1 1007.2 23.4
17/05:00am 7.9 3.3 6.7 92 0.6 W 20 43 11 23 1006.9 1007.0 22.2
17/04:30am 7.7 3.6 6.2 90 0.7 WNW 17 28 9 15 1006.5 1006.6 20.8
17/04:00am 8.1 1.5 6.1 87 0.9 W 30 65 16 35 1006.4 1006.5 19.4
17/03:50am 9.2 4.8 7.6 90 0.8 WNW 20 67 11 36 1006.6 1006.7 18.8
17/03:49am 9.6 6.0 8.2 91 0.7 WNW 17 43 9 23 1006.4 1006.5 18.8
17/03:30am 9.5 6.2 8.1 91 0.7 WNW 15 24 8 13 1005.6 1005.7 18.0
17/03:00am 9.3 6.4 8.1 92 0.6 NW 13 20 7 11 1005.4 1005.5 17.2
17/02:30am 9.3 6.4 8.1 92 0.6 NW 13 19 7 10 1005.8 1005.9 16.4
17/02:00am 9.2 5.4 7.5 89 0.8 W 17 33 9 18 1005.9 1006.0 15.6
17/01:30am 9.9 7.1 8.5 91 0.7 NW 13 19 7 10 1005.6 1005.7 14.8
17/01:00am 9.4 6.1 8.2 92 0.6 NW 15 24 8 13 1006.3 1006.4 14.0
17/12:30am 9.5 5.9 8.3 92 0.6 NW 17 32 9 17 1006.6 1006.7 13.4
17/12:00am 9.5 4.6 8.3 92 0.6 NNW 24 41 13 22 1007.0 1007.1 12.8
 
Date/Time
WST
Temp
°C
App
Temp
°C
Dew
Point
°C
Rel
Hum
%
Delta-T
°C
Wind Press
QNH
hPa
Press
MSL
hPa
Rain since
9am
mm
Dir  Spd
km/h
Gust
km/h
Spd
kts
Gust
kts
16/11:30pm 9.9 7.4 8.3 90 0.8 NW 11 17 6 9 1006.1 1006.2 12.4
16/11:00pm 10.2 7.8 8.5 89 0.8 WNW 11 19 6 10 1006.7 1006.8 11.8
16/10:30pm 9.9 5.6 7.7 86 1.1 NNW 20 46 11 25 1006.7 1006.8 11.4
16/10:00pm 9.6 6.6 7.7 88 0.9 NW 13 19 7 10 1006.9 1007.0 11.0
16/09:30pm 10.3 8.4 9.1 92 0.6 NW 9 15 5 8 1007.4 1007.5 10.6
16/09:00pm 10.1 7.3 8.7 91 0.7 WNW 13 19 7 10 1007.4 1007.5 10.2
16/08:30pm 9.7 6.4 8.1 90 0.8 WNW 15 30 8 16 1007.2 1007.3 9.8
16/08:00pm 9.8 6.9 8.1 89 0.8 WNW 13 20 7 11 1007.3 1007.4 9.6
16/07:30pm 10.1 6.4 8.0 87 1.0 WNW 17 30 9 16 1007.4 1007.5 9.2
16/07:00pm 10.9 7.8 8.7 86 1.1 NW 15 24 8 13 1007.0 1007.1 8.8
16/06:30pm 11.2 8.5 9.1 87 1.1 NW 13 19 7 10 1007.0 1007.1 8.6
16/06:00pm 10.8 7.3 8.7 87 1.1 WNW 17 26 9 14 1006.9 1007.0 8.4
16/05:30pm 11.8 6.8 7.9 77 1.9 WNW 24 46 13 25 1006.8 1006.9 8.0
16/05:00pm 13.1 9.0 8.0 71 2.6 WNW 19 39 10 21 1006.3 1006.4 7.6
16/04:30pm 13.0 8.1 8.5 74 2.3 W 24 44 13 24 1006.1 1006.2 7.4
16/04:00pm 14.6 9.9 7.9 64 3.4 WNW 22 41 12 22 1005.7 1005.8 7.0
16/03:31pm 15.1 9.3 7.9 62 3.6 WNW 28 50 15 27 1005.7 1005.8 6.6
16/03:30pm 15.0 9.6 7.8 62 3.6 WNW 26 50 14 27 1005.8 1005.9 6.6
16/03:22pm 14.5 8.7 7.8 64 3.4 WNW 28 52 15 28 1005.7 1005.8 6.6
16/03:00pm 14.6 10.6 9.0 69 2.9 WNW 20 35 11 19 1005.4 1005.5 6.2
16/02:30pm 14.2 10.4 9.8 75 2.3 WNW 20 35 11 19 1005.4 1005.5 5.8
16/02:08pm 13.8 8.1 8.2 69 2.8 WNW 28 46 15 25 1005.4 1005.5 5.4
16/02:00pm 14.8 9.7 7.8 63 3.5 WNW 24 46 13 25 1005.1 1005.2 5.2
16/01:30pm 15.8 11.1 9.2 65 3.4 WNW 24 48 13 26 1004.8 1004.9 4.8
16/01:00pm 14.8 11.1 10.0 73 2.5 W 20 41 11 22 1004.9 1005.0 4.2
16/12:30pm 13.4 10.9 11.1 86 1.2 WNW 15 30 8 16 1005.1 1005.2 3.8
16/12:00pm 13.5 11.0 11.0 85 1.3 WNW 15 35 8 19 1004.9 1005.0 3.2
16/11:30am 13.4 11.3 12.3 93 0.6 NW 15 26 8 14 1005.2 1005.3 2.8
16/11:00am 12.6 10.1 11.0 90 0.9 WNW 15 35 8 19 1005.6 1005.7 2.2
16/10:30am 13.2 11.7 11.9 92 0.7 NW 11 19 6 10 1005.5 1005.6 1.6
16/10:00am 13.1 11.3 12.0 93 0.6 NW 13 22 7 12 1005.5 1005.6 1.0
16/09:30am 12.6 9.8 11.2 91 0.7 W 17 37 9 20 1005.7 1005.8 0.4
16/09:00am 13.3 10.3 12.4 94 0.5 WNW 20 35 11 19 1005.1 1005.2 17.0
16/08:30am 13.4 10.8 12.1 92 0.7 W 17 32 9 17 1004.8 1004.9 16.4
16/08:00am 13.8 12.0 12.2 90 0.9 NW 13 24 7 13 1003.7 1003.8 16.0
16/07:30am 14.3 11.8 12.3 88 1.1 W 17 30 9 16 1003.5 1003.6 15.4
16/07:00am 14.4 12.4 12.6 89 1.0 WNW 15 26 8 14 1003.3 1003.4 15.0
16/06:30am 14.6 13.1 13.1 91 0.8 NW 13 26 7 14 1002.9 1003.0 14.6
16/06:00am 14.7 12.6 13.7 94 0.6 WNW 17 28 9 15 1002.7 1002.8 14.2
16/05:30am 15.0 13.0 14.0 94 0.6 W 17 30 9 16 1002.7 1002.8 13.6
16/05:00am 15.3 12.5 14.2 93 0.6 W 22 39 12 21 1002.2 1002.3 13.2
16/04:30am 15.5 14.1 14.5 94 0.6 WNW 15 26 8 14 1001.8 1001.9 12.6
16/04:00am 15.7 13.4 14.7 94 0.6 WNW 20 35 11 19 1002.4 1002.5 12.0
16/03:30am 16.0 14.4 15.0 94 0.6 WNW 17 32 9 17 1002.4 1002.5 11.4
16/03:00am 16.7 12.8 15.6 93 0.7 WNW 30 50 16 27 1001.8 1001.9 10.8
16/02:30am 17.4 14.2 16.4 94 0.6 NW 28 57 15 31 1001.1 1001.1 10.0
16/02:00am 17.3 13.3 16.3 94 0.6 NNW 32 56 17 30 1001.4 1001.4 9.4
16/01:51am 17.4 14.2 16.4 94 0.6 NNW 28 54 15 29 1001.5 1001.6 9.2
16/01:30am 17.3 14.8 16.2 93 0.7 NNW 24 39 13 21 1001.4 1001.4 8.8
16/01:00am 17.4 12.8 16.1 92 0.8 NNW 35 56 19 30 1001.4 1001.4 8.2
16/12:30am 17.4 13.3 15.9 91 0.9 N 32 56 17 30 1001.7 1001.8 7.8
16/12:00am 17.3 13.9 15.8 91 0.9 NNW 28 48 15 26 1002.6 1002.7 7.2
 
Date/Time
WST
Temp
°C
App
Temp
°C
Dew
Point
°C
Rel
Hum
%
Delta-T
°C
Wind Press
QNH
hPa
Press
MSL
hPa
Rain since
9am
mm
Dir  Spd
km/h
Gust
km/h
Spd
kts
Gust
kts
15/11:41pm 17.0 13.6 15.7 92 0.8 N 28 56 15 30 1002.6 1002.7 7.0
15/11:30pm 16.7 14.0 15.6 93 0.7 N 24 48 13 26 1003.3 1003.4 6.6
15/11:00pm 15.6 12.5 14.5 93 0.6 N 24 39 13 21 1003.4 1003.5 6.0
15/10:30pm 15.3 12.5 14.2 93 0.6 N 22 35 12 19 1004.6 1004.6 5.4
15/10:00pm 14.8 12.2 13.8 94 0.6 N 20 33 11 18 1004.8 1004.9 4.8
15/09:30pm 14.4 11.9 13.4 94 0.6 N 19 28 10 15 1005.4 1005.5 4.2
15/09:00pm 14.1 12.6 13.0 93 0.6 NE 13 20 7 11 1005.8 1005.9 3.4
15/08:30pm 14.2 13.0 12.8 91 0.8 NNW 11 15 6 8 1006.7 1006.8 2.6
15/08:00pm 14.3 12.7 12.9 91 0.8 N 13 22 7 12 1007.2 1007.3 1.8
15/07:30pm 14.5 12.4 12.5 88 1.1 N 15 20 8 11 1007.6 1007.7 1.0
15/07:00pm 14.6 13.5 12.1 85 1.4 NE 9 17 5 9 1007.2 1007.3 0.4
15/06:30pm 15.1 13.9 11.7 80 1.9 E 9 11 5 6 1006.9 1007.0 0.0
15/06:00pm 15.8 14.4 11.0 73 2.6 NE 9 15 5 8 1007.2 1007.3 0.0
15/05:30pm 16.2 15.1 10.7 70 3.0 NE 7 11 4 6 1007.2 1007.3 0.0
15/05:00pm 16.9 15.7 10.3 65 3.6 N 7 11 4 6 1007.6 1007.7 0.0
15/04:30pm 17.4 15.5 10.5 64 3.7 NNW 11 15 6 8 1008.3 1008.4 0.0
15/04:00pm 17.6 14.7 9.8 60 4.2 NNW 15 28 8 15 1008.4 1008.5 0.0

Other formats

Comma delimited format used in spreadsheet applications
http://www.bom.gov.au/fwo/IDW60801/IDW60801.94620.axf

JavaScript Object Notation format (JSON) in row-major order
http://www.bom.gov.au/fwo/IDW60801/IDW60801.94620.json

Data quality

Most of these data are generated automatically and are frequently updated. Quality checks on data are not normally performed. It is possible for incorrect values to appear. Refer to information at About Latest Weather Observations and please check the disclaimer before using these data.